Time;durP1;ratioP1;P1;durP2;ratioP2;P2;SDS_P1;SDS_P2;PMS_P1;PMS_P2;Temp;Humidity;BMP_temperature;BMP_pressure;BME280_temperature;BME280_humidity;BME280_pressure;Samples;Min_cycle;Max_cycle;Signal;HPM_P1;HPM_P2
2022/08/25 00:01:26;;;;;;;13.18;6.80;;;;;;;21.14;84.63;101537.53;5070571;28;20020;-65
2022/08/25 00:03:52;;;;;;;10.82;8.27;;;;;;;21.20;84.59;101540.09;5070691;28;20475;-65
2022/08/25 00:06:18;;;;;;;9.73;6.03;;;;;;;21.14;85.38;101543.81;5070474;28;20025;-65
2022/08/25 00:08:44;;;;;;;10.77;7.07;;;;;;;21.14;85.54;101548.38;5070529;28;20035;-65
2022/08/25 00:11:22;;;;;;;12.27;7.10;;;;;;;21.12;84.65;101534.28;5070339;28;20039;-65
2022/08/25 00:13:53;;;;;;;8.27;6.45;;;;;;;21.07;84.99;101545.88;5070391;28;20040;-65
2022/08/25 00:16:20;;;;;;;9.55;6.05;;;;;;;21.04;85.72;101540.94;5070481;28;20562;-65
2022/08/25 00:18:50;;;;;;;9.02;7.45;;;;;;;21.00;86.50;101534.38;5070387;28;20028;-65
2022/08/25 00:21:16;;;;;;;9.70;6.78;;;;;;;20.93;86.19;101539.13;5070292;28;20025;-65
2022/08/25 00:23:42;;;;;;;13.48;7.05;;;;;;;20.90;86.07;101542.34;5070048;28;20036;-65
2022/08/25 00:26:09;;;;;;;8.20;6.50;;;;;;;20.88;86.90;101530.94;5070093;28;20061;-65
2022/08/25 00:28:35;;;;;;;12.40;7.18;;;;;;;20.87;86.20;101540.97;5070174;28;20028;-65
2022/08/25 00:31:01;;;;;;;9.45;7.45;;;;;;;20.84;86.08;101535.22;5069722;28;20053;-65
2022/08/25 00:33:29;;;;;;;13.07;9.30;;;;;;;20.89;85.64;101538.81;5070160;28;20073;-65
2022/08/25 00:35:56;;;;;;;11.27;8.45;;;;;;;20.89;85.64;101536.13;5069897;28;20032;-65
2022/08/25 00:38:21;;;;;;;10.80;8.50;;;;;;;20.85;85.44;101532.25;5069893;28;20055;-65
2022/08/25 00:41:04;;;;;;;13.68;9.15;;;;;;;20.92;85.32;101541.03;5070008;28;20394;-65
2022/08/25 00:43:39;;;;;;;10.80;7.35;;;;;;;20.94;86.67;101540.81;5069903;28;20035;-65
2022/08/25 00:46:05;;;;;;;12.73;9.57;;;;;;;20.85;83.97;101543.09;5069911;28;21052;-65
2022/08/25 00:48:30;;;;;;;18.25;10.60;;;;;;;20.86;84.85;101539.34;5069858;28;20364;-65
2022/08/25 00:50:56;;;;;;;13.32;9.82;;;;;;;20.87;83.43;101535.53;5069704;28;20040;-65
2022/08/25 00:53:22;;;;;;;13.10;9.88;;;;;;;20.82;83.58;101534.66;5069695;28;20118;-65
2022/08/25 00:55:47;;;;;;;11.52;8.95;;;;;;;20.82;84.87;101545.50;5069659;28;20028;-65
2022/08/25 00:58:23;;;;;;;12.23;8.65;;;;;;;20.76;84.33;101545.41;5069730;28;20032;-65
2022/08/25 01:00:52;;;;;;;15.63;10.07;;;;;;;20.75;83.16;101542.94;5069007;28;20403;-66
2022/08/25 01:03:19;;;;;;;12.18;9.27;;;;;;;20.76;83.71;101542.69;5069576;28;20020;-65
2022/08/25 01:05:45;;;;;;;13.18;9.85;;;;;;;20.79;84.48;101541.38;5069462;28;20056;-65
2022/08/25 01:08:12;;;;;;;13.40;9.52;;;;;;;20.80;84.44;101543.00;5069639;28;20490;-65
2022/08/25 01:10:41;;;;;;;13.07;9.23;;;;;;;20.74;85.39;101538.59;5069339;28;20475;-65
2022/08/25 01:13:13;;;;;;;12.20;8.82;;;;;;;20.71;84.96;101544.53;5069332;28;20024;-65
2022/08/25 01:15:40;;;;;;;11.68;8.73;;;;;;;20.63;85.79;101537.63;5069243;28;20099;-65
2022/08/25 01:18:05;;;;;;;13.18;9.55;;;;;;;20.61;86.07;101545.16;5069281;28;20407;-65
2022/08/25 01:20:32;;;;;;;13.07;9.35;;;;;;;20.52;86.08;101533.91;5069388;28;20028;-65
2022/08/25 01:22:59;;;;;;;14.15;10.15;;;;;;;20.51;87.16;101544.97;5069327;28;20029;-65
2022/08/25 01:25:28;;;;;;;15.43;10.13;;;;;;;20.41;86.26;101539.38;5069354;28;21025;-69
2022/08/25 01:27:54;;;;;;;13.75;8.80;;;;;;;20.37;85.88;101547.19;5069446;28;20075;-69
2022/08/25 01:30:20;;;;;;;13.27;9.32;;;;;;;20.29;86.99;101539.47;5069038;28;20049;-69
2022/08/25 01:32:46;;;;;;;13.07;9.27;;;;;;;20.30;86.72;101544.66;5069257;28;20051;-69
2022/08/25 01:35:11;;;;;;;11.45;8.57;;;;;;;20.22;85.77;101549.63;5068947;28;20028;-69
2022/08/25 01:37:37;;;;;;;13.98;10.35;;;;;;;20.19;86.75;101553.66;5069259;28;20029;-69
2022/08/25 01:40:04;;;;;;;17.40;9.32;;;;;;;20.15;86.69;101552.50;5069027;28;20032;-69
2022/08/25 01:42:42;;;;;;;12.93;9.45;;;;;;;20.13;86.48;101552.72;5069152;28;20032;-69
2022/08/25 01:45:09;;;;;;;13.13;9.13;;;;;;;20.08;86.39;101551.81;5069234;28;20040;-69
2022/08/25 01:47:35;;;;;;;12.85;9.50;;;;;;;19.98;85.83;101546.22;5069197;28;20028;-69
2022/08/25 01:50:00;;;;;;;12.68;9.90;;;;;;;19.96;86.24;101546.44;5067552;28;20033;-69
2022/08/25 01:52:35;;;;;;;12.05;9.55;;;;;;;19.93;85.83;101541.53;5068931;28;20048;-69
2022/08/25 01:55:01;;;;;;;12.75;9.80;;;;;;;19.89;86.08;101540.38;5068703;28;20025;-69
2022/08/25 01:57:29;;;;;;;14.48;9.80;;;;;;;19.84;85.77;101545.69;5068849;28;20039;-68
2022/08/25 01:59:54;;;;;;;13.90;9.27;;;;;;;19.82;85.95;101543.22;5068985;28;20665;-69
2022/08/25 02:02:19;;;;;;;12.93;9.80;;;;;;;19.79;85.93;101546.41;5068702;28;20040;-69
2022/08/25 02:04:44;;;;;;;13.05;9.88;;;;;;;19.82;87.07;101540.50;5068925;28;20580;-69
2022/08/25 02:07:10;;;;;;;13.65;9.93;;;;;;;19.82;87.84;101545.09;5068953;28;20028;-69
2022/08/25 02:09:37;;;;;;;14.18;10.90;;;;;;;19.80;87.43;101539.91;5068864;28;20032;-69
2022/08/25 02:12:02;;;;;;;14.40;11.13;;;;;;;19.79;86.71;101541.00;5069240;28;20036;-69
2022/08/25 02:14:28;;;;;;;15.57;9.70;;;;;;;19.82;86.20;101547.81;5072756;28;20067;-69
2022/08/25 02:16:54;;;;;;;15.68;11.35;;;;;;;19.79;85.01;101535.59;5072515;28;20532;-69
2022/08/25 02:19:22;;;;;;;14.57;10.10;;;;;;;19.77;86.92;101537.69;5072682;28;20128;-69
2022/08/25 02:21:47;;;;;;;16.27;10.40;;;;;;;19.75;86.94;101539.00;5072471;28;20808;-69
2022/08/25 02:24:13;;;;;;;15.70;10.23;;;;;;;19.70;85.77;101540.56;5072613;28;20090;-69
2022/08/25 02:26:40;;;;;;;17.85;11.18;;;;;;;19.63;84.86;101541.75;5072351;28;20479;-70
2022/08/25 02:29:06;;;;;;;16.42;11.50;;;;;;;19.61;85.82;101543.84;5072370;28;20070;-68
2022/08/25 02:31:32;;;;;;;14.15;10.73;;;;;;;19.57;84.43;101538.13;5072357;28;20025;-69
2022/08/25 02:33:58;;;;;;;13.63;9.77;;;;;;;19.57;85.22;101538.13;5072369;28;20060;-69
2022/08/25 02:36:23;;;;;;;14.55;10.32;;;;;;;19.53;84.96;101541.53;5072325;28;20041;-69
2022/08/25 02:38:49;;;;;;;13.38;9.75;;;;;;;19.52;84.07;101529.03;5072266;28;20032;-69
2022/08/25 02:41:20;;;;;;;12.80;9.20;;;;;;;19.49;84.59;101527.63;5072157;28;20024;-69
2022/08/25 02:43:47;;;;;;;14.02;10.38;;;;;;;19.52;85.56;101535.31;5072205;28;20039;-69
2022/08/25 02:46:14;;;;;;;15.35;9.73;;;;;;;19.54;84.84;101532.34;5072017;28;20032;-69
2022/08/25 02:48:40;;;;;;;15.85;10.30;;;;;;;19.46;83.73;101511.88;5071439;28;20024;-69
2022/08/25 02:51:07;;;;;;;16.67;11.38;;;;;;;19.56;81.41;101530.22;5071657;28;20090;-69
2022/08/25 02:53:34;;;;;;;14.32;10.30;;;;;;;19.61;81.05;101533.84;5071889;28;20089;-69
2022/08/25 02:55:59;;;;;;;13.13;9.77;;;;;;;19.63;79.36;101525.50;5071288;28;20024;-69
2022/08/25 02:58:25;;;;;;;14.70;10.38;;;;;;;19.63;78.12;101515.50;5071867;28;20102;-69
2022/08/25 03:00:51;;;;;;;15.13;11.30;;;;;;;19.68;79.05;101515.63;5071794;28;20033;-69
2022/08/25 03:03:18;;;;;;;12.30;9.65;;;;;;;19.67;78.17;101518.56;5071709;28;20025;-68
2022/08/25 03:05:43;;;;;;;16.95;10.75;;;;;;;19.63;80.71;101514.69;5071383;28;20024;-69
2022/08/25 03:08:09;;;;;;;17.40;12.27;;;;;;;19.61;80.51;101514.09;5071701;28;20040;-69
2022/08/25 03:10:35;;;;;;;15.05;10.10;;;;;;;19.60;79.58;101515.16;5071505;28;20590;-69
2022/08/25 03:13:00;;;;;;;13.48;10.00;;;;;;;19.60;80.98;101509.75;5071721;28;20119;-69
2022/08/25 03:15:26;;;;;;;16.63;11.45;;;;;;;19.52;80.27;101513.66;5071580;28;20120;-69
2022/08/25 03:17:53;;;;;;;15.25;9.63;;;;;;;19.47;81.72;101514.38;5071657;28;20418;-69
2022/08/25 03:20:19;;;;;;;13.00;9.75;;;;;;;19.41;79.82;101506.38;5071444;28;20021;-69
2022/08/25 03:22:45;;;;;;;14.93;9.45;;;;;;;19.41;81.18;101514.50;5071243;28;20056;-70
2022/08/25 03:27:54;;;;;;;14.75;10.43;;;;;;;19.29;82.27;101506.41;5071411;28;20874;-69
2022/08/25 03:30:20;;;;;;;13.63;10.07;;;;;;;19.23;82.75;101501.94;5070697;28;20048;-69
2022/08/25 03:32:45;;;;;;;16.83;11.35;;;;;;;19.17;81.74;101500.19;5071290;28;20033;-70
2022/08/25 03:35:11;;;;;;;14.90;10.07;;;;;;;19.15;83.13;101502.31;5071243;28;20034;-69
2022/08/25 03:37:37;;;;;;;14.27;9.93;;;;;;;19.09;83.08;101495.16;5071027;28;20924;-69
2022/08/25 03:40:06;;;;;;;17.52;11.23;;;;;;;19.05;81.19;101494.81;5071217;28;20028;-69
2022/08/25 03:42:32;;;;;;;15.80;10.57;;;;;;;19.04;82.28;101490.47;5071130;28;20028;-69
2022/08/25 03:44:58;;;;;;;14.98;9.50;;;;;;;19.05;83.09;101492.94;5071148;28;20231;-69
2022/08/25 03:47:28;;;;;;;14.43;10.32;;;;;;;19.00;82.67;101492.00;5070988;28;20028;-68
2022/08/25 03:49:53;;;;;;;16.02;10.05;;;;;;;18.95;81.58;101494.59;5069543;28;20036;-69
2022/08/25 03:52:19;;;;;;;11.20;8.35;;;;;;;18.91;80.69;101483.41;5070834;28;20119;-68
2022/08/25 03:54:44;;;;;;;14.63;9.25;;;;;;;18.90;80.97;101480.97;5070853;28;20115;-69
2022/08/25 03:57:10;;;;;;;15.02;10.10;;;;;;;18.87;83.53;101484.97;5069132;28;20036;-69
2022/08/25 03:59:37;;;;;;;15.25;9.68;;;;;;;18.83;82.93;101484.59;5070606;28;20067;-69
2022/08/25 04:02:04;;;;;;;13.00;9.73;;;;;;;18.78;82.50;101487.19;5070688;28;20480;-69
2022/08/25 04:04:30;;;;;;;14.25;9.38;;;;;;;18.73;81.96;101487.06;5070683;28;20028;-68
2022/08/25 04:06:56;;;;;;;13.80;9.43;;;;;;;18.61;80.83;101472.72;5070150;28;20036;-68
2022/08/25 04:09:22;;;;;;;14.52;10.18;;;;;;;18.60;82.68;101477.31;5070595;28;20077;-68
2022/08/25 04:11:47;;;;;;;17.75;10.57;;;;;;;18.62;83.86;101472.47;5070214;28;20033;-68
2022/08/25 04:14:13;;;;;;;34.95;13.70;;;;;;;18.58;84.23;101471.31;5070216;28;20037;-69
2022/08/25 04:16:38;;;;;;;32.00;11.60;;;;;;;18.56;84.29;101467.19;5070323;28;20036;-68
2022/08/25 04:19:07;;;;;;;21.88;11.38;;;;;;;18.47;84.75;101455.94;5070482;28;20506;-68
2022/08/25 04:21:33;;;;;;;18.42;10.98;;;;;;;18.49;84.98;101458.38;5070371;28;20025;-68
2022/08/25 04:23:59;;;;;;;17.92;10.75;;;;;;;18.45;85.81;101468.03;5070320;28;20028;-68
2022/08/25 04:26:28;;;;;;;18.17;9.85;;;;;;;18.47;85.86;101474.00;5070152;28;20032;-68
2022/08/25 04:28:57;;;;;;;16.70;9.23;;;;;;;18.45;85.95;101474.25;5070025;28;20070;-68
2022/08/25 04:31:23;;;;;;;20.65;10.77;;;;;;;18.42;86.77;101465.78;5070072;28;20149;-68
2022/08/25 04:33:49;;;;;;;18.65;10.57;;;;;;;18.44;87.12;101464.47;5070054;28;20054;-68
2022/08/25 04:36:17;;;;;;;16.35;11.00;;;;;;;18.42;87.15;101460.38;5068997;28;20034;-68
2022/08/25 04:38:44;;;;;;;15.25;10.00;;;;;;;18.43;86.64;101456.63;5070059;28;20024;-68
2022/08/25 04:41:11;;;;;;;13.05;8.63;;;;;;;18.43;85.73;101464.72;5069771;28;20065;-69
2022/08/25 04:43:39;;;;;;;15.98;10.80;;;;;;;18.46;85.27;101461.56;5069795;28;20040;-68
2022/08/25 04:46:07;;;;;;;13.23;9.52;;;;;;;18.43;85.23;101456.63;5069956;28;20115;-68
2022/08/25 04:48:32;;;;;;;17.27;10.57;;;;;;;18.44;84.34;101458.25;5069681;28;20202;-68
2022/08/25 04:51:03;;;;;;;17.02;9.57;;;;;;;18.43;84.27;101462.03;5069373;28;20115;-68
2022/08/25 04:53:29;;;;;;;11.43;9.32;;;;;;;18.39;83.72;101456.25;5069398;28;20115;-69
2022/08/25 04:55:54;;;;;;;11.88;9.15;;;;;;;18.39;83.78;101461.66;5069782;28;20264;-69
2022/08/25 04:58:19;;;;;;;15.13;9.55;;;;;;;18.41;82.84;101464.94;5069539;28;20458;-69
2022/08/25 05:00:45;;;;;;;15.35;9.43;;;;;;;18.45;82.86;101465.31;5069442;28;20038;-68
2022/08/25 05:03:10;;;;;;;14.05;9.18;;;;;;;18.48;84.09;101454.88;5069181;28;20041;-68
2022/08/25 05:05:37;;;;;;;13.05;9.05;;;;;;;18.49;84.07;101456.50;5069584;28;20032;-69
2022/08/25 05:08:04;;;;;;;12.15;8.55;;;;;;;18.50;83.14;101462.75;5069376;28;20024;-69
2022/08/25 05:10:30;;;;;;;13.38;9.55;;;;;;;18.54;85.21;101467.44;5069466;28;20032;-69
2022/08/25 05:12:55;;;;;;;14.63;10.00;;;;;;;18.53;85.26;101465.78;5069182;28;20032;-69
2022/08/25 05:18:05;;;;;;;16.88;10.15;;;;;;;18.50;83.59;101465.44;5069615;28;20063;-69
2022/08/25 05:20:30;;;;;;;14.15;9.82;;;;;;;18.47;81.94;101466.75;5069473;28;20021;-68
2022/08/25 05:22:57;;;;;;;15.70;10.35;;;;;;;18.54;82.16;101480.94;5069348;28;20047;-68
2022/08/25 05:25:22;;;;;;;14.00;9.88;;;;;;;18.59;83.40;101478.34;5069212;28;20028;-68
2022/08/25 05:27:48;;;;;;;14.95;9.40;;;;;;;18.61;84.25;101481.66;5068585;28;20043;-68
2022/08/25 05:30:13;;;;;;;14.07;9.45;;;;;;;18.62;82.53;101483.28;5068645;28;20757;-69
2022/08/25 05:32:39;;;;;;;15.68;9.77;;;;;;;18.67;83.85;101485.28;5069254;28;20024;-69
2022/08/25 05:35:05;;;;;;;16.02;9.70;;;;;;;18.78;82.58;101491.78;5067883;28;20541;-69
2022/08/25 05:37:32;;;;;;;16.33;10.43;;;;;;;18.89;82.80;101495.53;5069246;28;20032;-68
2022/08/25 05:39:57;;;;;;;14.20;9.75;;;;;;;18.97;83.43;101496.00;5069102;28;20050;-68
2022/08/25 05:42:23;;;;;;;17.10;10.23;;;;;;;19.04;83.06;101499.38;5069035;28;20059;-68
2022/08/25 05:44:49;;;;;;;13.98;9.82;;;;;;;19.12;82.37;101492.78;5069162;28;20025;-65
2022/08/25 05:47:14;;;;;;;14.68;10.27;;;;;;;19.19;82.27;101498.91;5071463;28;20112;-65
2022/08/25 05:49:40;;;;;;;16.40;9.88;;;;;;;19.27;81.81;101500.41;5073253;28;20025;-65
2022/08/25 05:52:05;;;;;;;18.40;10.88;;;;;;;19.32;81.74;101495.13;5071923;28;20107;-65
2022/08/25 05:54:31;;;;;;;16.00;10.45;;;;;;;19.38;80.63;101498.75;5072722;28;20059;-65
2022/08/25 05:56:57;;;;;;;13.40;9.20;;;;;;;19.48;78.51;101497.06;5073085;28;20043;-65
2022/08/25 05:59:23;;;;;;;13.23;9.20;;;;;;;19.55;77.72;101502.34;5072829;28;20048;-64
2022/08/25 06:04:32;;;;;;;14.32;8.45;;;;;;;19.68;74.71;101501.28;5073323;28;20134;-64
2022/08/25 06:06:58;;;;;;;13.05;8.52;;;;;;;19.78;74.73;101497.91;5072972;28;20028;-64
2022/08/25 06:09:23;;;;;;;11.88;7.45;;;;;;;19.86;72.53;101498.38;5072964;28;20040;-65
2022/08/25 06:11:49;;;;;;;9.80;7.45;;;;;;;19.95;75.02;101506.91;5072691;28;20028;-65
2022/08/25 06:14:15;;;;;;;15.02;7.53;;;;;;;20.04;73.07;101505.47;5073040;28;20043;-65
2022/08/25 06:16:40;;;;;;;10.43;6.40;;;;;;;20.12;72.33;101510.47;5072811;28;20032;-67
2022/08/25 06:19:08;;;;;;;11.82;7.13;;;;;;;20.20;70.80;101497.56;5072577;28;20119;-69
2022/08/25 06:21:34;;;;;;;11.25;7.85;;;;;;;20.27;71.10;101499.06;5072761;28;20086;-69
2022/08/25 06:24:00;;;;;;;11.32;7.85;;;;;;;20.32;71.60;101501.84;5072444;28;20135;-69
2022/08/25 06:26:25;;;;;;;14.52;7.20;;;;;;;20.42;70.23;101503.91;5072465;28;20035;-69
2022/08/25 06:28:52;;;;;;;12.23;7.65;;;;;;;20.45;70.79;101489.88;5072385;28;20490;-69
2022/08/25 06:31:18;;;;;;;17.08;7.93;;;;;;;20.56;72.03;101509.84;5072233;28;20146;-70
2022/08/25 06:33:43;;;;;;;14.57;7.60;;;;;;;20.61;72.06;101499.09;5071847;28;20040;-69
2022/08/25 06:36:09;;;;;;;12.25;7.38;;;;;;;20.70;70.26;101502.22;5071900;28;20058;-70
2022/08/25 06:38:35;;;;;;;9.27;6.70;;;;;;;20.75;72.38;101494.97;5072433;28;20028;-70
2022/08/25 06:41:02;;;;;;;15.13;7.50;;;;;;;20.84;70.91;101502.69;5072040;28;20022;-69
2022/08/25 06:43:28;;;;;;;16.05;6.82;;;;;;;20.95;70.33;101502.56;5070507;28;20028;-69
2022/08/25 06:45:53;;;;;;;10.00;6.25;;;;;;;21.07;68.58;101502.47;5072315;28;20033;-69
2022/08/25 06:48:18;;;;;;;9.32;6.57;;;;;;;21.16;69.23;101498.25;5072073;28;20171;-69
2022/08/25 06:50:44;;;;;;;10.63;6.57;;;;;;;21.24;68.62;101499.69;5072056;28;20032;-69
2022/08/25 06:53:10;;;;;;;8.57;6.20;;;;;;;21.34;68.41;101499.00;5072078;28;20026;-69
2022/08/25 06:55:36;;;;;;;9.20;6.13;;;;;;;21.42;67.82;101496.69;5071931;28;20506;-69
2022/08/25 06:58:02;;;;;;;10.05;5.97;;;;;;;21.51;67.32;101496.25;5071166;28;20060;-69
2022/08/25 07:00:28;;;;;;;8.88;6.53;;;;;;;21.62;67.38;101496.13;5072013;28;20025;-69
2022/08/25 07:02:54;;;;;;;10.55;6.43;;;;;;;21.72;66.14;101491.84;5071871;28;20040;-70
2022/08/25 07:05:19;;;;;;;12.75;6.22;;;;;;;21.78;67.04;101496.28;5071872;28;20032;-69
2022/08/25 07:07:45;;;;;;;9.15;6.95;;;;;;;21.86;65.96;101493.91;5071807;28;20111;-69
2022/08/25 07:10:11;;;;;;;10.40;6.68;;;;;;;21.97;66.25;101491.31;5071633;28;20115;-69
2022/08/25 07:12:37;;;;;;;10.18;6.82;;;;;;;22.03;65.12;101484.81;5070382;28;20048;-67
2022/08/25 07:15:04;;;;;;;9.65;6.18;;;;;;;22.12;65.08;101496.06;5071674;28;20120;-67
2022/08/25 07:17:29;;;;;;;11.02;6.15;;;;;;;22.18;65.19;101489.59;5071582;28;20103;-67
2022/08/25 07:19:54;;;;;;;9.13;5.97;;;;;;;22.26;63.77;101487.22;5071547;28;20128;-67
2022/08/25 07:22:20;;;;;;;9.13;6.18;;;;;;;22.32;63.55;101488.09;5071560;28;20119;-68
2022/08/25 07:24:45;;;;;;;9.05;6.28;;;;;;;22.42;65.40;101495.50;5070556;28;20033;-68
2022/08/25 07:27:10;;;;;;;11.63;5.55;;;;;;;22.45;65.22;101489.56;5065848;28;20132;-68
2022/08/25 07:29:37;;;;;;;8.88;5.75;;;;;;;22.44;63.39;101483.31;5067363;28;20086;-69
2022/08/25 07:32:03;;;;;;;17.80;5.93;;;;;;;22.58;62.19;101491.81;5065840;28;20029;-70
2022/08/25 07:37:13;;;;;;;12.50;6.45;;;;;;;22.70;64.26;101489.72;5066700;28;20993;-69
2022/08/25 07:39:39;;;;;;;8.27;5.18;;;;;;;22.81;62.89;101487.88;5067185;28;20028;-69
2022/08/25 07:42:04;;;;;;;12.75;5.00;;;;;;;22.92;60.87;101486.03;5066719;28;20024;-71
2022/08/25 07:44:30;;;;;;;7.03;5.00;;;;;;;23.02;61.76;101485.31;5066628;28;20029;-73
2022/08/25 07:46:56;;;;;;;8.35;5.22;;;;;;;23.15;60.88;101484.84;5067258;28;20025;-70
2022/08/25 07:49:24;;;;;;;8.25;4.88;;;;;;;23.26;59.43;101483.78;5070846;28;20119;-69
2022/08/25 07:51:51;;;;;;;13.10;6.00;;;;;;;23.39;60.01;101482.47;5070928;28;20033;-69
2022/08/25 07:54:17;;;;;;;9.20;5.60;;;;;;;23.51;58.88;101483.06;5070972;28;20021;-69
2022/08/25 07:56:42;;;;;;;8.70;4.50;;;;;;;23.59;60.82;101484.44;5070908;28;20048;-69
2022/08/25 07:59:08;;;;;;;9.55;5.38;;;;;;;23.72;62.70;101480.44;5070410;28;20059;-69
2022/08/25 08:01:35;;;;;;;14.55;4.95;;;;;;;23.86;61.44;101476.06;5070789;28;20036;-69
2022/08/25 08:04:00;;;;;;;9.85;5.05;;;;;;;24.41;56.96;101474.44;5070819;28;20393;-70
2022/08/25 08:06:25;;;;;;;8.73;5.05;;;;;;;25.69;55.12;101467.75;5070691;28;20115;-70
2022/08/25 08:08:52;;;;;;;8.63;4.53;;;;;;;26.94;54.05;101467.22;5070652;28;20048;-70
2022/08/25 08:11:27;;;;;;;9.52;5.30;;;;;;;28.40;50.72;101470.84;5069538;28;20063;-69
2022/08/25 08:13:54;;;;;;;8.77;5.00;;;;;;;29.23;45.84;101459.09;5070479;28;20111;-69
2022/08/25 08:16:22;;;;;;;10.20;5.28;;;;;;;29.87;45.39;101465.34;5070383;28;20479;-69
2022/08/25 08:18:47;;;;;;;8.65;5.35;;;;;;;30.99;43.61;101467.09;5070359;28;20086;-69
2022/08/25 08:21:19;;;;;;;9.98;4.70;;;;;;;32.30;41.49;101470.72;5070373;28;20028;-70
2022/08/25 08:23:44;;;;;;;6.53;5.47;;;;;;;33.22;37.66;101466.53;5070222;28;20046;-69
2022/08/25 08:26:10;;;;;;;10.85;5.15;;;;;;;33.80;34.84;101470.34;5070319;28;20475;-69
2022/08/25 08:28:36;;;;;;;8.85;4.70;;;;;;;34.41;33.60;101474.47;5068908;28;20044;-69
2022/08/25 08:31:01;;;;;;;9.80;4.28;;;;;;;34.59;33.36;101472.31;5069993;28;20365;-69
2022/08/25 08:33:27;;;;;;;10.07;4.90;;;;;;;35.07;32.65;101460.41;5070074;28;20033;-69
2022/08/25 08:36:11;;;;;;;8.82;4.03;;;;;;;35.50;37.19;101460.88;5070000;28;20023;-70
2022/08/25 08:38:39;;;;;;;7.22;4.45;;;;;;;35.50;32.65;101458.09;5070045;28;20032;-69
2022/08/25 08:44:44;;;;;;;6.75;4.47;;;;;;;35.38;36.83;101453.41;5070194;28;20058;-70
2022/08/25 08:47:22;;;;;;;10.32;4.25;;;;;;;33.79;35.11;101452.13;5069947;28;20024;-70
2022/08/25 08:49:59;;;;;;;11.38;4.25;;;;;;;32.24;37.83;101446.34;5069584;28;20124;-69
2022/08/25 08:52:59;;;;;;;10.27;4.65;;;;;;;30.93;40.91;101446.31;5069745;28;20044;-69
2022/08/25 08:55:45;;;;;;;6.22;4.50;;;;;;;29.99;42.32;101452.97;5069660;28;20032;-70
2022/08/25 08:58:28;;;;;;;7.15;5.20;;;;;;;29.27;43.82;101455.44;5069778;28;20099;-69
2022/08/25 09:00:57;;;;;;;5.82;4.72;;;;;;;28.70;43.74;101448.63;5069435;28;20032;-70
2022/08/25 09:03:45;;;;;;;12.13;5.53;;;;;;;28.23;46.05;101454.13;5069324;28;20025;-69
2022/08/25 09:06:18;;;;;;;6.25;4.65;;;;;;;27.90;45.54;101445.94;5069097;28;20089;-70
2022/08/25 09:08:44;;;;;;;6.88;4.68;;;;;;;27.77;46.89;101441.16;5069294;28;20028;-70
2022/08/25 09:11:45;;;;;;;8.13;4.97;;;;;;;27.71;47.65;101445.09;5069001;28;20024;-70
2022/08/25 09:14:38;;;;;;;11.15;5.43;;;;;;;27.59;47.72;101442.81;5069127;28;20036;-70
2022/08/25 09:17:35;;;;;;;6.10;4.03;;;;;;;27.51;47.82;101444.31;5069465;28;20020;-69
2022/08/25 09:20:19;;;;;;;8.60;4.65;;;;;;;27.50;47.30;101448.13;5068992;28;20031;-69
2022/08/25 09:22:56;;;;;;;8.23;4.63;;;;;;;27.52;46.15;101453.31;5069118;28;20085;-69
2022/08/25 09:25:45;;;;;;;8.57;4.32;;;;;;;27.52;46.08;101448.66;5069296;28;20867;-67
2022/08/25 09:28:44;;;;;;;6.25;4.97;;;;;;;27.62;48.84;101453.19;5068904;28;20127;-70
2022/08/25 09:31:22;;;;;;;9.70;4.88;;;;;;;27.66;46.83;101443.22;5064323;28;20048;-69
2022/08/25 09:33:54;;;;;;;7.68;4.50;;;;;;;27.64;45.74;101439.16;5064712;28;20052;-70
2022/08/25 09:36:19;;;;;;;9.23;4.28;;;;;;;27.65;47.23;101444.34;5064737;28;20093;-72
2022/08/25 09:38:44;;;;;;;9.00;4.57;;;;;;;27.66;47.84;101436.94;5065102;28;20024;-70
2022/08/25 09:41:15;;;;;;;10.07;4.07;;;;;;;27.78;45.64;101439.25;5063699;28;20059;-70
2022/08/25 09:43:43;;;;;;;13.40;4.07;;;;;;;27.88;46.88;101430.88;5064990;28;20019;-70
2022/08/25 09:46:14;;;;;;;8.57;4.60;;;;;;;28.02;48.34;101431.72;5067980;28;20541;-69
2022/08/25 09:48:46;;;;;;;7.40;4.63;;;;;;;28.06;46.59;101437.41;5068958;28;20028;-70
2022/08/25 09:51:25;;;;;;;13.82;4.97;;;;;;;28.09;47.70;101443.13;5069090;28;20025;-69
2022/08/25 09:54:04;;;;;;;10.18;5.35;;;;;;;28.19;48.77;101437.47;5069017;28;20506;-70
2022/08/25 09:56:33;;;;;;;10.10;4.80;;;;;;;28.27;45.94;101435.97;5051108;28;20035;-70
2022/08/25 09:59:17;;;;;;;9.75;4.55;;;;;;;28.31;49.18;101436.16;5068921;28;20033;-69
2022/08/25 10:01:49;;;;;;;11.82;4.90;;;;;;;28.38;48.93;101431.91;5068541;28;20033;-69
2022/08/25 10:04:25;;;;;;;10.98;4.30;;;;;;;28.42;45.19;101432.09;5068486;28;20487;-69
2022/08/25 10:06:51;;;;;;;8.30;4.32;;;;;;;28.47;45.66;101425.75;5068812;28;20028;-69
2022/08/25 10:09:29;;;;;;;12.23;4.68;;;;;;;28.48;46.48;101414.47;5068767;28;20035;-69
2022/08/25 10:11:54;;;;;;;7.45;4.43;;;;;;;28.61;48.06;101415.56;5068844;28;20162;-69
2022/08/25 10:14:46;;;;;;;8.27;3.90;;;;;;;28.72;47.54;101414.28;5068834;28;20029;-69
2022/08/25 10:17:14;;;;;;;5.30;4.00;;;;;;;28.77;45.25;101408.69;5067618;28;20063;-69
2022/08/25 10:19:40;;;;;;;8.57;5.00;;;;;;;28.83;42.94;101399.22;5068718;28;20032;-69
2022/08/25 10:22:07;;;;;;;6.38;4.47;;;;;;;28.95;45.75;101398.69;5068635;28;20033;-69
2022/08/25 10:24:33;;;;;;;7.93;5.00;;;;;;;28.98;45.19;101395.31;5068490;28;20040;-69
2022/08/25 10:27:08;;;;;;;7.18;4.53;;;;;;;29.04;46.10;101393.28;5068768;28;20067;-69
2022/08/25 10:30:01;;;;;;;11.55;4.50;;;;;;;28.99;43.97;101388.69;5068463;28;20053;-70
2022/08/25 10:32:35;;;;;;;11.30;4.30;;;;;;;29.03;44.08;101376.00;5068662;28;20498;-69
2022/08/25 10:35:13;;;;;;;7.50;4.47;;;;;;;29.12;46.87;101389.03;5072081;28;20044;-69
2022/08/25 10:37:57;;;;;;;10.05;5.07;;;;;;;29.18;46.03;101383.09;5072344;28;20399;-69
2022/08/25 10:40:31;;;;;;;7.15;3.90;;;;;;;29.17;43.29;101375.97;5072235;28;20142;-69
2022/08/25 10:43:14;;;;;;;5.72;3.50;;;;;;;29.12;43.13;101367.03;5072218;28;20161;-70
2022/08/25 10:45:50;;;;;;;9.35;3.95;;;;;;;29.08;43.69;101366.03;5072125;28;20035;-67
2022/08/25 10:48:34;;;;;;;5.07;4.10;;;;;;;29.08;43.14;101368.78;5072185;28;20073;-67
2022/08/25 10:51:28;;;;;;;7.32;4.00;;;;;;;29.04;41.26;101355.66;5071921;28;20090;-69
2022/08/25 10:54:25;;;;;;;4.20;3.33;;;;;;;29.25;42.77;101364.25;5072093;28;20035;-70
2022/08/25 10:57:16;;;;;;;7.15;3.63;;;;;;;29.38;43.18;101359.03;5071965;28;20537;-70
2022/08/25 10:59:57;;;;;;;5.05;3.17;;;;;;;29.51;39.32;101362.84;5071967;28;20029;-69
2022/08/25 11:02:53;;;;;;;5.80;2.83;;;;;;;29.59;40.02;101340.09;5071956;28;20036;-69
2022/08/25 11:05:39;;;;;;;4.15;3.30;;;;;;;29.66;39.64;101346.00;5071886;28;20490;-69
2022/08/25 11:08:39;;;;;;;5.32;3.72;;;;;;;29.60;40.26;101350.75;5071901;28;20032;-69
2022/08/25 11:11:11;;;;;;;7.80;3.47;;;;;;;29.58;39.57;101336.53;5071689;28;20108;-69
2022/08/25 11:13:42;;;;;;;7.50;4.60;;;;;;;29.66;37.17;101344.06;5071688;28;20028;-69
2022/08/25 11:16:12;;;;;;;6.88;3.70;;;;;;;29.57;37.05;101345.09;5071679;28;20047;-69
2022/08/25 11:18:53;;;;;;;100.18;12.45;;;;;;;29.39;40.51;101339.47;5071626;28;20025;-69
2022/08/25 11:21:28;;;;;;;5.32;3.20;;;;;;;29.15;37.88;101345.25;5071785;28;20021;-68
2022/08/25 11:24:12;;;;;;;4.47;3.22;;;;;;;28.94;39.92;101333.09;5071578;28;20032;-68
2022/08/25 11:26:43;;;;;;;4.53;2.70;;;;;;;28.79;38.80;101326.81;5071446;28;20563;-68
2022/08/25 11:29:16;;;;;;;4.72;3.05;;;;;;;28.78;38.35;101318.88;5071180;28;20036;-68
2022/08/25 11:31:46;;;;;;;4.30;2.85;;;;;;;28.82;36.84;101322.66;5071336;28;20097;-68
2022/08/25 11:34:17;;;;;;;5.28;3.08;;;;;;;28.84;39.99;101314.88;5071382;28;20028;-68
2022/08/25 11:36:50;;;;;;;6.15;2.85;;;;;;;28.88;39.82;101318.66;5071194;28;20031;-69
2022/08/25 11:39:39;;;;;;;5.63;2.78;;;;;;;28.97;39.47;101313.22;5071275;28;20032;-69
2022/08/25 11:42:22;;;;;;;7.35;3.08;;;;;;;29.09;38.56;101313.53;5071215;28;20092;-69